sensor_id;sensor_type;location;lat;lon;timestamp;P1;durP1;ratioP1;P2;durP2;ratioP2
6825;SDS011;3451;52.476;13.316;2024-01-30T00:02:14;10.07;;;7.00;;
6825;SDS011;3451;52.476;13.316;2024-01-30T00:04:41;12.47;;;7.40;;
6825;SDS011;3451;52.476;13.316;2024-01-30T00:07:07;17.47;;;7.20;;
6825;SDS011;3451;52.476;13.316;2024-01-30T00:09:34;12.97;;;7.43;;
6825;SDS011;3451;52.476;13.316;2024-01-30T00:12:00;11.83;;;7.03;;
6825;SDS011;3451;52.476;13.316;2024-01-30T00:14:26;12.70;;;6.40;;
6825;SDS011;3451;52.476;13.316;2024-01-30T00:16:53;14.87;;;7.53;;
6825;SDS011;3451;52.476;13.316;2024-01-30T00:19:19;10.87;;;6.47;;
6825;SDS011;3451;52.476;13.316;2024-01-30T00:21:46;13.90;;;7.60;;
6825;SDS011;3451;52.476;13.316;2024-01-30T00:24:12;11.97;;;7.60;;
6825;SDS011;3451;52.476;13.316;2024-01-30T00:26:39;12.67;;;6.80;;
6825;SDS011;3451;52.476;13.316;2024-01-30T00:29:05;14.57;;;7.53;;
6825;SDS011;3451;52.476;13.316;2024-01-30T00:31:31;14.57;;;7.10;;
6825;SDS011;3451;52.476;13.316;2024-01-30T00:33:58;13.17;;;7.30;;
6825;SDS011;3451;52.476;13.316;2024-01-30T00:36:24;13.50;;;7.03;;
6825;SDS011;3451;52.476;13.316;2024-01-30T00:38:50;13.90;;;7.53;;
6825;SDS011;3451;52.476;13.316;2024-01-30T00:41:17;10.53;;;6.60;;
6825;SDS011;3451;52.476;13.316;2024-01-30T00:43:44;12.23;;;6.80;;
6825;SDS011;3451;52.476;13.316;2024-01-30T00:46:11;13.13;;;7.57;;
6825;SDS011;3451;52.476;13.316;2024-01-30T00:48:37;12.37;;;7.10;;
6825;SDS011;3451;52.476;13.316;2024-01-30T00:51:03;13.20;;;7.10;;
6825;SDS011;3451;52.476;13.316;2024-01-30T00:53:30;12.53;;;7.10;;
6825;SDS011;3451;52.476;13.316;2024-01-30T00:55:56;13.37;;;7.27;;
6825;SDS011;3451;52.476;13.316;2024-01-30T00:58:23;13.83;;;7.13;;
6825;SDS011;3451;52.476;13.316;2024-01-30T01:00:49;13.90;;;7.20;;
6825;SDS011;3451;52.476;13.316;2024-01-30T01:03:16;9.93;;;6.60;;
6825;SDS011;3451;52.476;13.316;2024-01-30T01:05:42;13.00;;;7.60;;
6825;SDS011;3451;52.476;13.316;2024-01-30T01:08:09;10.73;;;6.70;;
6825;SDS011;3451;52.476;13.316;2024-01-30T01:10:35;10.53;;;6.83;;
6825;SDS011;3451;52.476;13.316;2024-01-30T01:13:01;12.00;;;6.77;;
6825;SDS011;3451;52.476;13.316;2024-01-30T01:15:28;13.80;;;7.00;;
6825;SDS011;3451;52.476;13.316;2024-01-30T01:17:55;11.77;;;7.37;;
6825;SDS011;3451;52.476;13.316;2024-01-30T01:20:22;10.87;;;7.07;;
6825;SDS011;3451;52.476;13.316;2024-01-30T01:22:48;15.50;;;7.40;;
6825;SDS011;3451;52.476;13.316;2024-01-30T01:25:15;11.73;;;7.10;;
6825;SDS011;3451;52.476;13.316;2024-01-30T01:27:41;9.63;;;6.67;;
6825;SDS011;3451;52.476;13.316;2024-01-30T01:30:09;12.97;;;7.50;;
6825;SDS011;3451;52.476;13.316;2024-01-30T01:32:36;12.43;;;7.30;;
6825;SDS011;3451;52.476;13.316;2024-01-30T01:35:03;12.30;;;7.30;;
6825;SDS011;3451;52.476;13.316;2024-01-30T01:37:31;12.77;;;7.30;;
6825;SDS011;3451;52.476;13.316;2024-01-30T01:39:58;14.00;;;6.90;;
6825;SDS011;3451;52.476;13.316;2024-01-30T01:42:24;15.17;;;6.90;;
6825;SDS011;3451;52.476;13.316;2024-01-30T01:44:51;12.13;;;7.10;;
6825;SDS011;3451;52.476;13.316;2024-01-30T01:47:17;11.07;;;6.77;;
6825;SDS011;3451;52.476;13.316;2024-01-30T01:49:43;11.33;;;7.00;;
6825;SDS011;3451;52.476;13.316;2024-01-30T01:52:10;13.53;;;7.23;;
6825;SDS011;3451;52.476;13.316;2024-01-30T01:54:36;12.33;;;7.57;;
6825;SDS011;3451;52.476;13.316;2024-01-30T01:57:02;10.83;;;6.70;;
6825;SDS011;3451;52.476;13.316;2024-01-30T01:59:29;12.97;;;7.63;;
6825;SDS011;3451;52.476;13.316;2024-01-30T02:01:56;13.07;;;7.57;;
6825;SDS011;3451;52.476;13.316;2024-01-30T02:04:23;15.00;;;7.70;;
6825;SDS011;3451;52.476;13.316;2024-01-30T02:06:49;11.57;;;6.90;;
6825;SDS011;3451;52.476;13.316;2024-01-30T02:09:16;10.60;;;6.87;;
6825;SDS011;3451;52.476;13.316;2024-01-30T02:11:42;11.97;;;7.00;;
6825;SDS011;3451;52.476;13.316;2024-01-30T02:14:08;11.27;;;7.07;;
6825;SDS011;3451;52.476;13.316;2024-01-30T02:16:35;10.73;;;6.80;;
6825;SDS011;3451;52.476;13.316;2024-01-30T02:19:01;11.30;;;7.47;;
6825;SDS011;3451;52.476;13.316;2024-01-30T02:21:28;13.37;;;7.60;;
6825;SDS011;3451;52.476;13.316;2024-01-30T02:23:54;15.63;;;7.77;;
6825;SDS011;3451;52.476;13.316;2024-01-30T02:26:27;11.37;;;7.00;;
6825;SDS011;3451;52.476;13.316;2024-01-30T02:28:53;15.20;;;7.73;;
6825;SDS011;3451;52.476;13.316;2024-01-30T02:31:19;14.07;;;7.83;;
6825;SDS011;3451;52.476;13.316;2024-01-30T02:33:46;11.20;;;7.10;;
6825;SDS011;3451;52.476;13.316;2024-01-30T02:36:12;12.47;;;7.33;;
6825;SDS011;3451;52.476;13.316;2024-01-30T02:38:39;13.33;;;7.13;;
6825;SDS011;3451;52.476;13.316;2024-01-30T02:41:05;11.97;;;7.13;;
6825;SDS011;3451;52.476;13.316;2024-01-30T02:43:31;12.27;;;7.13;;
6825;SDS011;3451;52.476;13.316;2024-01-30T02:45:58;14.83;;;7.77;;
6825;SDS011;3451;52.476;13.316;2024-01-30T02:48:26;12.10;;;6.70;;
6825;SDS011;3451;52.476;13.316;2024-01-30T02:50:52;12.87;;;7.57;;
6825;SDS011;3451;52.476;13.316;2024-01-30T02:53:18;14.77;;;8.07;;
6825;SDS011;3451;52.476;13.316;2024-01-30T02:55:45;11.67;;;6.97;;
6825;SDS011;3451;52.476;13.316;2024-01-30T02:58:11;14.63;;;7.43;;
6825;SDS011;3451;52.476;13.316;2024-01-30T03:00:37;12.40;;;7.47;;
6825;SDS011;3451;52.476;13.316;2024-01-30T03:03:04;14.77;;;7.70;;
6825;SDS011;3451;52.476;13.316;2024-01-30T03:05:30;14.30;;;7.57;;
6825;SDS011;3451;52.476;13.316;2024-01-30T03:07:57;12.97;;;7.50;;
6825;SDS011;3451;52.476;13.316;2024-01-30T03:10:23;12.50;;;7.47;;
6825;SDS011;3451;52.476;13.316;2024-01-30T03:12:50;12.17;;;7.50;;
6825;SDS011;3451;52.476;13.316;2024-01-30T03:15:16;13.60;;;7.20;;
6825;SDS011;3451;52.476;13.316;2024-01-30T03:17:42;12.20;;;7.43;;
6825;SDS011;3451;52.476;13.316;2024-01-30T03:20:09;13.37;;;7.77;;
6825;SDS011;3451;52.476;13.316;2024-01-30T03:22:35;15.07;;;7.50;;
6825;SDS011;3451;52.476;13.316;2024-01-30T03:25:02;14.77;;;7.37;;
6825;SDS011;3451;52.476;13.316;2024-01-30T03:27:28;12.90;;;7.40;;
6825;SDS011;3451;52.476;13.316;2024-01-30T03:29:55;12.70;;;7.43;;
6825;SDS011;3451;52.476;13.316;2024-01-30T03:32:21;12.77;;;7.23;;
6825;SDS011;3451;52.476;13.316;2024-01-30T03:34:47;13.03;;;7.50;;
6825;SDS011;3451;52.476;13.316;2024-01-30T03:37:14;12.47;;;6.73;;
6825;SDS011;3451;52.476;13.316;2024-01-30T03:39:41;15.53;;;7.60;;
6825;SDS011;3451;52.476;13.316;2024-01-30T03:42:07;12.77;;;7.60;;
6825;SDS011;3451;52.476;13.316;2024-01-30T03:44:33;12.30;;;7.83;;
6825;SDS011;3451;52.476;13.316;2024-01-30T03:46:59;16.07;;;7.80;;
6825;SDS011;3451;52.476;13.316;2024-01-30T03:49:26;10.93;;;7.27;;
6825;SDS011;3451;52.476;13.316;2024-01-30T03:51:52;12.17;;;7.37;;
6825;SDS011;3451;52.476;13.316;2024-01-30T03:54:19;12.43;;;7.33;;
6825;SDS011;3451;52.476;13.316;2024-01-30T03:56:45;12.53;;;8.10;;
6825;SDS011;3451;52.476;13.316;2024-01-30T03:59:11;12.30;;;7.37;;
6825;SDS011;3451;52.476;13.316;2024-01-30T04:01:38;12.40;;;7.60;;
6825;SDS011;3451;52.476;13.316;2024-01-30T04:04:04;15.37;;;8.43;;
6825;SDS011;3451;52.476;13.316;2024-01-30T04:06:31;13.57;;;7.33;;
6825;SDS011;3451;52.476;13.316;2024-01-30T04:08:57;13.03;;;7.43;;
6825;SDS011;3451;52.476;13.316;2024-01-30T04:11:23;11.23;;;7.03;;
6825;SDS011;3451;52.476;13.316;2024-01-30T04:13:49;14.47;;;7.40;;
6825;SDS011;3451;52.476;13.316;2024-01-30T04:16:22;13.37;;;7.70;;
6825;SDS011;3451;52.476;13.316;2024-01-30T04:18:49;12.90;;;7.30;;
6825;SDS011;3451;52.476;13.316;2024-01-30T04:21:15;11.50;;;7.40;;
6825;SDS011;3451;52.476;13.316;2024-01-30T04:23:42;12.93;;;8.03;;
6825;SDS011;3451;52.476;13.316;2024-01-30T04:26:08;12.83;;;7.53;;
6825;SDS011;3451;52.476;13.316;2024-01-30T04:28:34;12.97;;;6.50;;
6825;SDS011;3451;52.476;13.316;2024-01-30T04:31:01;13.87;;;8.10;;
6825;SDS011;3451;52.476;13.316;2024-01-30T04:33:27;13.67;;;7.60;;
6825;SDS011;3451;52.476;13.316;2024-01-30T04:35:54;15.07;;;7.50;;
6825;SDS011;3451;52.476;13.316;2024-01-30T04:38:20;13.83;;;7.77;;
6825;SDS011;3451;52.476;13.316;2024-01-30T04:40:46;14.27;;;7.90;;
6825;SDS011;3451;52.476;13.316;2024-01-30T04:43:12;13.37;;;7.47;;
6825;SDS011;3451;52.476;13.316;2024-01-30T04:45:39;16.17;;;8.03;;
6825;SDS011;3451;52.476;13.316;2024-01-30T04:48:06;12.90;;;7.73;;
6825;SDS011;3451;52.476;13.316;2024-01-30T04:50:32;13.33;;;7.83;;
6825;SDS011;3451;52.476;13.316;2024-01-30T04:52:59;14.17;;;8.30;;
6825;SDS011;3451;52.476;13.316;2024-01-30T04:55:25;13.97;;;7.90;;
6825;SDS011;3451;52.476;13.316;2024-01-30T04:57:52;13.97;;;8.00;;
6825;SDS011;3451;52.476;13.316;2024-01-30T05:00:18;10.63;;;6.77;;
6825;SDS011;3451;52.476;13.316;2024-01-30T05:02:45;17.47;;;8.10;;
6825;SDS011;3451;52.476;13.316;2024-01-30T05:05:11;13.40;;;7.60;;
6825;SDS011;3451;52.476;13.316;2024-01-30T05:07:38;14.53;;;8.03;;
6825;SDS011;3451;52.476;13.316;2024-01-30T05:10:05;12.83;;;7.53;;
6825;SDS011;3451;52.476;13.316;2024-01-30T05:12:32;15.87;;;8.13;;
6825;SDS011;3451;52.476;13.316;2024-01-30T05:14:59;20.47;;;7.63;;
6825;SDS011;3451;52.476;13.316;2024-01-30T05:17:25;12.70;;;7.97;;
6825;SDS011;3451;52.476;13.316;2024-01-30T05:19:51;12.23;;;7.20;;
6825;SDS011;3451;52.476;13.316;2024-01-30T05:22:18;12.10;;;7.50;;
6825;SDS011;3451;52.476;13.316;2024-01-30T05:24:45;15.17;;;8.07;;
6825;SDS011;3451;52.476;13.316;2024-01-30T05:27:11;12.03;;;8.07;;
6825;SDS011;3451;52.476;13.316;2024-01-30T05:29:40;14.70;;;8.10;;
6825;SDS011;3451;52.476;13.316;2024-01-30T05:32:07;13.97;;;7.77;;
6825;SDS011;3451;52.476;13.316;2024-01-30T05:34:33;13.50;;;8.10;;
6825;SDS011;3451;52.476;13.316;2024-01-30T05:37:00;11.67;;;7.67;;
6825;SDS011;3451;52.476;13.316;2024-01-30T05:39:26;13.23;;;8.00;;
6825;SDS011;3451;52.476;13.316;2024-01-30T05:41:52;12.03;;;7.50;;
6825;SDS011;3451;52.476;13.316;2024-01-30T05:44:19;13.27;;;7.90;;
6825;SDS011;3451;52.476;13.316;2024-01-30T05:46:45;13.60;;;8.10;;
6825;SDS011;3451;52.476;13.316;2024-01-30T05:49:11;14.13;;;7.63;;
6825;SDS011;3451;52.476;13.316;2024-01-30T05:51:38;12.97;;;8.00;;
6825;SDS011;3451;52.476;13.316;2024-01-30T05:54:04;17.23;;;8.40;;
6825;SDS011;3451;52.476;13.316;2024-01-30T05:56:31;15.13;;;8.37;;
6825;SDS011;3451;52.476;13.316;2024-01-30T05:58:57;11.77;;;7.60;;
6825;SDS011;3451;52.476;13.316;2024-01-30T06:01:23;14.57;;;8.07;;
6825;SDS011;3451;52.476;13.316;2024-01-30T06:03:50;12.77;;;7.67;;
6825;SDS011;3451;52.476;13.316;2024-01-30T06:06:16;16.80;;;9.10;;
6825;SDS011;3451;52.476;13.316;2024-01-30T06:08:42;10.90;;;7.53;;
6825;SDS011;3451;52.476;13.316;2024-01-30T06:11:12;15.00;;;7.53;;
6825;SDS011;3451;52.476;13.316;2024-01-30T06:13:38;13.10;;;7.70;;
6825;SDS011;3451;52.476;13.316;2024-01-30T06:16:05;13.70;;;7.57;;
6825;SDS011;3451;52.476;13.316;2024-01-30T06:18:34;13.67;;;7.77;;
6825;SDS011;3451;52.476;13.316;2024-01-30T06:21:01;14.27;;;8.17;;
6825;SDS011;3451;52.476;13.316;2024-01-30T06:23:27;14.43;;;8.03;;
6825;SDS011;3451;52.476;13.316;2024-01-30T06:25:54;14.97;;;8.23;;
6825;SDS011;3451;52.476;13.316;2024-01-30T06:28:20;14.43;;;8.10;;
6825;SDS011;3451;52.476;13.316;2024-01-30T06:30:47;14.17;;;8.50;;
6825;SDS011;3451;52.476;13.316;2024-01-30T06:33:13;13.40;;;7.53;;
6825;SDS011;3451;52.476;13.316;2024-01-30T06:35:40;18.23;;;9.07;;
6825;SDS011;3451;52.476;13.316;2024-01-30T06:38:10;15.53;;;7.87;;
6825;SDS011;3451;52.476;13.316;2024-01-30T06:40:36;16.10;;;8.43;;
6825;SDS011;3451;52.476;13.316;2024-01-30T06:43:04;15.80;;;8.43;;
6825;SDS011;3451;52.476;13.316;2024-01-30T06:45:30;17.00;;;8.43;;
6825;SDS011;3451;52.476;13.316;2024-01-30T06:47:57;14.97;;;8.87;;
6825;SDS011;3451;52.476;13.316;2024-01-30T06:50:23;13.87;;;8.50;;
6825;SDS011;3451;52.476;13.316;2024-01-30T06:52:50;12.33;;;8.47;;
6825;SDS011;3451;52.476;13.316;2024-01-30T06:55:17;15.37;;;8.77;;
6825;SDS011;3451;52.476;13.316;2024-01-30T06:57:44;15.40;;;8.47;;
6825;SDS011;3451;52.476;13.316;2024-01-30T07:00:11;14.33;;;8.57;;
6825;SDS011;3451;52.476;13.316;2024-01-30T07:02:38;15.73;;;8.53;;
6825;SDS011;3451;52.476;13.316;2024-01-30T07:05:04;15.97;;;8.70;;
6825;SDS011;3451;52.476;13.316;2024-01-30T07:07:31;14.43;;;7.87;;
6825;SDS011;3451;52.476;13.316;2024-01-30T07:09:57;17.97;;;8.60;;
6825;SDS011;3451;52.476;13.316;2024-01-30T07:12:24;15.97;;;7.73;;
6825;SDS011;3451;52.476;13.316;2024-01-30T07:14:52;17.40;;;8.37;;
6825;SDS011;3451;52.476;13.316;2024-01-30T07:17:18;15.33;;;8.90;;
6825;SDS011;3451;52.476;13.316;2024-01-30T07:19:44;17.50;;;8.80;;
6825;SDS011;3451;52.476;13.316;2024-01-30T07:22:11;16.40;;;8.87;;
6825;SDS011;3451;52.476;13.316;2024-01-30T07:24:41;21.07;;;9.80;;
6825;SDS011;3451;52.476;13.316;2024-01-30T07:27:08;16.53;;;9.00;;
6825;SDS011;3451;52.476;13.316;2024-01-30T07:29:34;16.97;;;8.90;;
6825;SDS011;3451;52.476;13.316;2024-01-30T07:32:00;15.17;;;9.00;;
6825;SDS011;3451;52.476;13.316;2024-01-30T07:34:27;12.20;;;8.13;;
6825;SDS011;3451;52.476;13.316;2024-01-30T07:36:54;15.40;;;8.70;;
6825;SDS011;3451;52.476;13.316;2024-01-30T07:39:21;16.07;;;9.33;;
6825;SDS011;3451;52.476;13.316;2024-01-30T07:41:48;15.93;;;8.00;;
6825;SDS011;3451;52.476;13.316;2024-01-30T07:44:14;20.30;;;9.20;;
6825;SDS011;3451;52.476;13.316;2024-01-30T07:46:40;14.27;;;8.30;;
6825;SDS011;3451;52.476;13.316;2024-01-30T07:49:06;15.30;;;8.70;;
6825;SDS011;3451;52.476;13.316;2024-01-30T07:51:40;14.20;;;8.70;;
6825;SDS011;3451;52.476;13.316;2024-01-30T07:54:07;17.73;;;8.67;;
6825;SDS011;3451;52.476;13.316;2024-01-30T07:56:33;13.13;;;8.30;;
6825;SDS011;3451;52.476;13.316;2024-01-30T07:58:59;12.40;;;8.07;;
6825;SDS011;3451;52.476;13.316;2024-01-30T08:01:26;14.50;;;8.20;;
6825;SDS011;3451;52.476;13.316;2024-01-30T08:03:52;15.53;;;8.40;;
6825;SDS011;3451;52.476;13.316;2024-01-30T08:06:18;13.37;;;7.77;;
6825;SDS011;3451;52.476;13.316;2024-01-30T08:08:45;15.57;;;8.77;;
6825;SDS011;3451;52.476;13.316;2024-01-30T08:11:12;13.57;;;8.27;;
6825;SDS011;3451;52.476;13.316;2024-01-30T08:13:38;15.57;;;8.53;;
6825;SDS011;3451;52.476;13.316;2024-01-30T08:16:04;13.40;;;8.33;;
6825;SDS011;3451;52.476;13.316;2024-01-30T08:18:31;16.00;;;8.73;;
6825;SDS011;3451;52.476;13.316;2024-01-30T08:20:57;18.07;;;9.40;;
6825;SDS011;3451;52.476;13.316;2024-01-30T08:23:24;15.87;;;8.53;;
6825;SDS011;3451;52.476;13.316;2024-01-30T08:25:50;13.53;;;7.80;;
6825;SDS011;3451;52.476;13.316;2024-01-30T08:28:17;17.83;;;10.13;;
6825;SDS011;3451;52.476;13.316;2024-01-30T08:30:46;17.07;;;8.93;;
6825;SDS011;3451;52.476;13.316;2024-01-30T08:33:12;15.70;;;8.37;;
6825;SDS011;3451;52.476;13.316;2024-01-30T08:35:39;18.30;;;8.83;;
6825;SDS011;3451;52.476;13.316;2024-01-30T08:38:05;15.13;;;8.20;;
6825;SDS011;3451;52.476;13.316;2024-01-30T08:40:32;13.13;;;8.07;;
6825;SDS011;3451;52.476;13.316;2024-01-30T08:42:58;13.73;;;8.63;;
6825;SDS011;3451;52.476;13.316;2024-01-30T08:45:25;12.73;;;8.13;;
6825;SDS011;3451;52.476;13.316;2024-01-30T08:47:51;15.17;;;9.00;;
6825;SDS011;3451;52.476;13.316;2024-01-30T08:50:18;16.07;;;8.27;;
6825;SDS011;3451;52.476;13.316;2024-01-30T08:52:44;15.73;;;8.80;;
6825;SDS011;3451;52.476;13.316;2024-01-30T08:55:13;14.80;;;9.37;;
6825;SDS011;3451;52.476;13.316;2024-01-30T08:57:39;13.93;;;8.60;;
6825;SDS011;3451;52.476;13.316;2024-01-30T09:00:06;15.90;;;9.00;;
6825;SDS011;3451;52.476;13.316;2024-01-30T09:02:35;14.27;;;8.37;;
6825;SDS011;3451;52.476;13.316;2024-01-30T09:05:01;15.17;;;9.13;;
6825;SDS011;3451;52.476;13.316;2024-01-30T09:07:28;14.27;;;8.20;;
6825;SDS011;3451;52.476;13.316;2024-01-30T09:09:55;16.33;;;8.83;;
6825;SDS011;3451;52.476;13.316;2024-01-30T09:12:21;12.87;;;8.30;;
6825;SDS011;3451;52.476;13.316;2024-01-30T09:14:48;19.63;;;8.53;;
6825;SDS011;3451;52.476;13.316;2024-01-30T09:17:14;11.87;;;8.43;;
6825;SDS011;3451;52.476;13.316;2024-01-30T09:19:40;13.47;;;8.17;;
6825;SDS011;3451;52.476;13.316;2024-01-30T09:22:07;15.37;;;8.57;;
6825;SDS011;3451;52.476;13.316;2024-01-30T09:24:34;12.73;;;7.23;;
6825;SDS011;3451;52.476;13.316;2024-01-30T09:27:00;14.83;;;8.50;;
6825;SDS011;3451;52.476;13.316;2024-01-30T09:29:27;12.40;;;7.67;;
6825;SDS011;3451;52.476;13.316;2024-01-30T09:31:53;13.73;;;8.33;;
6825;SDS011;3451;52.476;13.316;2024-01-30T09:34:20;11.50;;;7.83;;
6825;SDS011;3451;52.476;13.316;2024-01-30T09:36:46;11.53;;;7.80;;
6825;SDS011;3451;52.476;13.316;2024-01-30T09:39:13;12.50;;;7.87;;
6825;SDS011;3451;52.476;13.316;2024-01-30T09:41:45;13.90;;;8.43;;
6825;SDS011;3451;52.476;13.316;2024-01-30T09:44:11;14.10;;;7.60;;
6825;SDS011;3451;52.476;13.316;2024-01-30T09:46:38;12.20;;;7.17;;
6825;SDS011;3451;52.476;13.316;2024-01-30T09:49:05;18.27;;;7.87;;
6825;SDS011;3451;52.476;13.316;2024-01-30T09:51:32;12.47;;;7.83;;
6825;SDS011;3451;52.476;13.316;2024-01-30T09:53:59;15.83;;;8.03;;
6825;SDS011;3451;52.476;13.316;2024-01-30T09:56:25;14.07;;;7.53;;
6825;SDS011;3451;52.476;13.316;2024-01-30T09:58:51;12.90;;;8.83;;
6825;SDS011;3451;52.476;13.316;2024-01-30T10:01:18;13.53;;;8.53;;
6825;SDS011;3451;52.476;13.316;2024-01-30T10:03:45;14.10;;;8.43;;
6825;SDS011;3451;52.476;13.316;2024-01-30T10:06:12;10.63;;;7.53;;
6825;SDS011;3451;52.476;13.316;2024-01-30T10:08:38;10.37;;;6.67;;
6825;SDS011;3451;52.476;13.316;2024-01-30T10:11:05;13.40;;;7.37;;
6825;SDS011;3451;52.476;13.316;2024-01-30T10:13:31;14.10;;;7.23;;
6825;SDS011;3451;52.476;13.316;2024-01-30T10:15:58;11.60;;;6.73;;
6825;SDS011;3451;52.476;13.316;2024-01-30T10:18:24;14.03;;;7.50;;
6825;SDS011;3451;52.476;13.316;2024-01-30T10:20:52;10.87;;;7.03;;
6825;SDS011;3451;52.476;13.316;2024-01-30T10:23:18;11.20;;;7.30;;
6825;SDS011;3451;52.476;13.316;2024-01-30T10:25:45;11.97;;;7.53;;
6825;SDS011;3451;52.476;13.316;2024-01-30T10:28:12;10.53;;;7.17;;
6825;SDS011;3451;52.476;13.316;2024-01-30T10:30:39;11.53;;;7.30;;
6825;SDS011;3451;52.476;13.316;2024-01-30T10:33:06;9.30;;;7.07;;
6825;SDS011;3451;52.476;13.316;2024-01-30T10:35:32;12.33;;;6.90;;
6825;SDS011;3451;52.476;13.316;2024-01-30T10:38:00;12.27;;;6.87;;
6825;SDS011;3451;52.476;13.316;2024-01-30T10:40:27;13.67;;;6.77;;
6825;SDS011;3451;52.476;13.316;2024-01-30T10:42:54;10.47;;;6.43;;
6825;SDS011;3451;52.476;13.316;2024-01-30T10:45:22;10.20;;;6.37;;
6825;SDS011;3451;52.476;13.316;2024-01-30T10:47:49;10.40;;;6.50;;
6825;SDS011;3451;52.476;13.316;2024-01-30T10:50:16;13.03;;;6.40;;
6825;SDS011;3451;52.476;13.316;2024-01-30T10:52:42;10.47;;;6.80;;
6825;SDS011;3451;52.476;13.316;2024-01-30T10:55:10;12.53;;;6.33;;
6825;SDS011;3451;52.476;13.316;2024-01-30T10:57:37;12.60;;;8.27;;
6825;SDS011;3451;52.476;13.316;2024-01-30T11:00:04;11.90;;;6.90;;
6825;SDS011;3451;52.476;13.316;2024-01-30T11:02:38;11.40;;;6.60;;
6825;SDS011;3451;52.476;13.316;2024-01-30T11:05:04;12.30;;;6.87;;
6825;SDS011;3451;52.476;13.316;2024-01-30T11:07:31;11.47;;;6.47;;
6825;SDS011;3451;52.476;13.316;2024-01-30T11:12:24;12.93;;;7.40;;
6825;SDS011;3451;52.476;13.316;2024-01-30T11:15:04;12.27;;;6.77;;
6825;SDS011;3451;52.476;13.316;2024-01-30T11:17:41;14.50;;;7.37;;
6825;SDS011;3451;52.476;13.316;2024-01-30T11:20:11;13.10;;;7.10;;
6825;SDS011;3451;52.476;13.316;2024-01-30T11:22:38;15.73;;;7.10;;
6825;SDS011;3451;52.476;13.316;2024-01-30T11:25:06;11.43;;;6.70;;
6825;SDS011;3451;52.476;13.316;2024-01-30T11:27:37;12.03;;;7.20;;
6825;SDS011;3451;52.476;13.316;2024-01-30T11:30:04;13.80;;;6.77;;
6825;SDS011;3451;52.476;13.316;2024-01-30T11:32:31;10.80;;;6.60;;
6825;SDS011;3451;52.476;13.316;2024-01-30T11:34:58;12.37;;;7.23;;
6825;SDS011;3451;52.476;13.316;2024-01-30T11:37:24;9.87;;;6.80;;
6825;SDS011;3451;52.476;13.316;2024-01-30T11:39:53;10.73;;;6.80;;
6825;SDS011;3451;52.476;13.316;2024-01-30T11:42:23;12.77;;;6.73;;
6825;SDS011;3451;52.476;13.316;2024-01-30T11:44:53;11.97;;;7.20;;
6825;SDS011;3451;52.476;13.316;2024-01-30T11:47:19;12.20;;;6.43;;
6825;SDS011;3451;52.476;13.316;2024-01-30T11:49:46;13.23;;;7.07;;
6825;SDS011;3451;52.476;13.316;2024-01-30T11:52:13;11.53;;;6.93;;
6825;SDS011;3451;52.476;13.316;2024-01-30T11:54:39;14.13;;;7.70;;
6825;SDS011;3451;52.476;13.316;2024-01-30T11:57:06;12.17;;;7.07;;
6825;SDS011;3451;52.476;13.316;2024-01-30T11:59:32;10.70;;;7.60;;
6825;SDS011;3451;52.476;13.316;2024-01-30T12:01:58;12.63;;;8.13;;
6825;SDS011;3451;52.476;13.316;2024-01-30T12:04:28;11.13;;;7.40;;
6825;SDS011;3451;52.476;13.316;2024-01-30T12:06:54;10.97;;;7.13;;
6825;SDS011;3451;52.476;13.316;2024-01-30T12:09:21;13.43;;;7.37;;
6825;SDS011;3451;52.476;13.316;2024-01-30T12:11:48;12.20;;;7.33;;
6825;SDS011;3451;52.476;13.316;2024-01-30T12:14:16;12.97;;;7.53;;
6825;SDS011;3451;52.476;13.316;2024-01-30T12:16:43;16.23;;;7.70;;
6825;SDS011;3451;52.476;13.316;2024-01-30T12:19:09;12.83;;;7.67;;
6825;SDS011;3451;52.476;13.316;2024-01-30T12:21:37;13.70;;;7.77;;
6825;SDS011;3451;52.476;13.316;2024-01-30T12:24:04;13.07;;;7.50;;
6825;SDS011;3451;52.476;13.316;2024-01-30T12:26:30;15.60;;;8.00;;
6825;SDS011;3451;52.476;13.316;2024-01-30T12:28:57;14.10;;;7.57;;
6825;SDS011;3451;52.476;13.316;2024-01-30T12:31:28;12.43;;;7.70;;
6825;SDS011;3451;52.476;13.316;2024-01-30T12:33:55;16.50;;;7.60;;
6825;SDS011;3451;52.476;13.316;2024-01-30T12:36:22;14.53;;;7.83;;
6825;SDS011;3451;52.476;13.316;2024-01-30T12:38:49;11.40;;;7.73;;
6825;SDS011;3451;52.476;13.316;2024-01-30T12:41:15;12.47;;;7.93;;
6825;SDS011;3451;52.476;13.316;2024-01-30T12:43:42;14.63;;;8.63;;
6825;SDS011;3451;52.476;13.316;2024-01-30T12:46:08;10.70;;;7.20;;
6825;SDS011;3451;52.476;13.316;2024-01-30T12:48:35;13.30;;;7.63;;
6825;SDS011;3451;52.476;13.316;2024-01-30T12:51:01;15.23;;;7.73;;
6825;SDS011;3451;52.476;13.316;2024-01-30T12:53:28;13.47;;;7.77;;
6825;SDS011;3451;52.476;13.316;2024-01-30T12:55:54;11.90;;;7.67;;
6825;SDS011;3451;52.476;13.316;2024-01-30T12:58:20;15.10;;;7.57;;
6825;SDS011;3451;52.476;13.316;2024-01-30T13:00:47;11.93;;;7.20;;
6825;SDS011;3451;52.476;13.316;2024-01-30T13:03:14;14.60;;;7.53;;
6825;SDS011;3451;52.476;13.316;2024-01-30T13:05:40;14.00;;;8.20;;
6825;SDS011;3451;52.476;13.316;2024-01-30T13:08:06;11.10;;;6.93;;
6825;SDS011;3451;52.476;13.316;2024-01-30T13:10:33;14.43;;;7.57;;
6825;SDS011;3451;52.476;13.316;2024-01-30T13:12:59;12.33;;;7.27;;
6825;SDS011;3451;52.476;13.316;2024-01-30T13:15:26;12.80;;;8.30;;
6825;SDS011;3451;52.476;13.316;2024-01-30T13:17:53;11.93;;;7.80;;
6825;SDS011;3451;52.476;13.316;2024-01-30T13:20:20;14.50;;;8.13;;
6825;SDS011;3451;52.476;13.316;2024-01-30T13:22:47;14.27;;;7.50;;
6825;SDS011;3451;52.476;13.316;2024-01-30T13:25:15;12.97;;;7.80;;
6825;SDS011;3451;52.476;13.316;2024-01-30T13:27:42;11.90;;;7.27;;
6825;SDS011;3451;52.476;13.316;2024-01-30T13:30:09;12.47;;;7.70;;
6825;SDS011;3451;52.476;13.316;2024-01-30T13:32:36;15.20;;;7.23;;
6825;SDS011;3451;52.476;13.316;2024-01-30T13:35:02;16.97;;;7.80;;
6825;SDS011;3451;52.476;13.316;2024-01-30T13:37:29;14.13;;;7.47;;
6825;SDS011;3451;52.476;13.316;2024-01-30T13:39:56;11.17;;;7.47;;
6825;SDS011;3451;52.476;13.316;2024-01-30T13:42:23;17.53;;;9.40;;
6825;SDS011;3451;52.476;13.316;2024-01-30T13:44:49;19.30;;;8.93;;
6825;SDS011;3451;52.476;13.316;2024-01-30T13:47:16;13.70;;;7.40;;
6825;SDS011;3451;52.476;13.316;2024-01-30T13:49:45;13.77;;;7.60;;
6825;SDS011;3451;52.476;13.316;2024-01-30T13:52:12;18.27;;;7.33;;
6825;SDS011;3451;52.476;13.316;2024-01-30T13:54:38;13.23;;;7.90;;
6825;SDS011;3451;52.476;13.316;2024-01-30T13:57:05;12.20;;;7.40;;
6825;SDS011;3451;52.476;13.316;2024-01-30T13:59:32;14.20;;;7.63;;
6825;SDS011;3451;52.476;13.316;2024-01-30T14:01:59;12.37;;;6.87;;
6825;SDS011;3451;52.476;13.316;2024-01-30T14:04:25;12.63;;;7.10;;
6825;SDS011;3451;52.476;13.316;2024-01-30T14:06:52;13.77;;;7.63;;
6825;SDS011;3451;52.476;13.316;2024-01-30T14:09:29;13.27;;;7.23;;
6825;SDS011;3451;52.476;13.316;2024-01-30T14:11:56;12.40;;;7.17;;
6825;SDS011;3451;52.476;13.316;2024-01-30T14:14:22;13.60;;;7.53;;
6825;SDS011;3451;52.476;13.316;2024-01-30T14:16:49;12.40;;;6.90;;
6825;SDS011;3451;52.476;13.316;2024-01-30T14:19:15;14.80;;;7.77;;
6825;SDS011;3451;52.476;13.316;2024-01-30T14:21:41;29.60;;;8.60;;
6825;SDS011;3451;52.476;13.316;2024-01-30T14:24:09;13.63;;;7.37;;
6825;SDS011;3451;52.476;13.316;2024-01-30T14:26:36;13.20;;;8.03;;
6825;SDS011;3451;52.476;13.316;2024-01-30T14:29:02;13.20;;;8.17;;
6825;SDS011;3451;52.476;13.316;2024-01-30T14:31:29;15.50;;;8.03;;
6825;SDS011;3451;52.476;13.316;2024-01-30T14:33:55;14.33;;;8.17;;
6825;SDS011;3451;52.476;13.316;2024-01-30T14:36:22;15.47;;;6.83;;
6825;SDS011;3451;52.476;13.316;2024-01-30T14:38:48;12.00;;;7.23;;
6825;SDS011;3451;52.476;13.316;2024-01-30T14:41:14;15.43;;;7.60;;
6825;SDS011;3451;52.476;13.316;2024-01-30T14:43:41;13.40;;;7.40;;
6825;SDS011;3451;52.476;13.316;2024-01-30T14:46:07;11.77;;;7.33;;
6825;SDS011;3451;52.476;13.316;2024-01-30T14:48:33;15.50;;;7.63;;